EST,Max TemperatureF,Mean TemperatureF,Min TemperatureF,Max Dew PointF,MeanDew PointF,Min DewpointF,Max Humidity, Mean Humidity, Min Humidity, Max Sea Level PressureIn, Mean Sea Level PressureIn, Min Sea Level PressureIn, Max VisibilityMiles, Mean VisibilityMiles, Min VisibilityMiles, Max Wind SpeedMPH, Mean Wind SpeedMPH, Max Gust SpeedMPH,PrecipitationIn, CloudCover, Events, WindDirDegrees
2014-1-1,12,-2,-16,-3,-12,-20,83,67,50,30.47,30.24,30.04,10,8,2,16,6,26,T,3,Snow,283
2014-1-2,-8,-12,-16,-20,-23,-27,66,58,50,30.57,30.44,30.20,10,10,10,14,7,19,0.00,6,,27
2014-1-3,-1,-7,-13,-16,-20,-24,64,53,41,30.31,30.12,30.00,10,10,9,18,10,26,0.00,4,,331
2014-1-4,9,0,-10,1,-9,-20,69,60,50,30.43,30.31,30.19,10,10,10,13,5,20,0.00,5,,196
2014-1-5,25,17,9,18,11,2,84,70,55,30.32,30.27,30.18,10,10,5,5,1,6,0.00,4,,106
2014-1-6,53,38,23,51,36,15,100,82,63,30.16,29.55,29.16,10,4,0,22,9,32,1.43,8,Fog-Rain-Snow,117
2014-1-7,27,17,7,11,-2,-10,63,52,41,29.90,29.60,29.28,10,9,2,24,13,40,T,5,Snow,272
2014-1-8,19,13,7,1,-3,-8,57,50,43,30.31,30.18,29.94,10,10,10,18,10,31,0.00,1,,266
2014-1-9,19,9,-1,4,-1,-6,79,57,34,30.61,30.45,30.29,10,10,10,22,6,33,0.00,2,,262
2014-1-10,27,12,-4,11,2,-8,86,63,40,30.57,30.41,30.30,10,10,10,8,1,15,0.00,2,,183
2014-1-11,36,24,11,35,26,7,96,86,76,30.28,29.66,29.12,10,2,1,7,1,10,0.97,8,Rain,96
2014-1-12,44,40,35,41,32,22,96,74,52,29.76,29.30,29.08,10,7,1,26,11,39,0.12,7,Rain,273
2014-1-13,44,36,28,31,24,20,82,62,41,30.03,29.95,29.81,10,10,10,20,7,32,0.00,1,,216
2014-1-14,45,41,37,43,38,32,100,90,79,29.86,29.71,29.57,10,4,0,10,3,19,0.55,8,Fog-Rain,302
2014-1-15,44,38,32,37,32,30,100,81,62,29.99,29.90,29.64,10,10,5,10,4,19,0.07,4,Rain,217
2014-1-16,38,35,32,33,30,27,96,80,64,29.98,29.93,29.89,10,9,5,8,2,10,0.00,7,,339
2014-1-17,39,34,28,36,31,26,96,89,82,29.97,29.90,29.84,10,7,1,9,2,12,T,6,Rain-Snow,150
2014-1-18,34,28,22,30,24,19,100,91,82,29.91,29.80,29.67,10,3,0,5,0,5,0.00,2,Fog,282
2014-1-19,30,25,20,28,24,17,92,81,69,29.69,29.45,29.29,10,4,0,10,2,17,0.11,7,Fog-Snow,148
2014-1-20,26,14,1,21,12,-12,88,72,55,29.82,29.50,29.36,10,7,1,20,10,29,T,7,Snow,293
2014-1-21,4,0,-5,-11,-13,-16,61,54,46,30.12,30.03,29.85,10,10,10,21,10,32,0.00,0,,293
2014-1-22,5,1,-4,-9,-11,-14,71,64,56,30.05,29.85,29.70,10,10,10,17,9,23,0.00,0,,344
2014-1-23,12,4,-5,-5,-9,-14,69,58,46,30.04,29.92,29.83,10,10,10,16,11,27,0.00,0,,293
2014-1-24,8,3,-3,-7,-11,-13,79,62,45,30.15,30.08,30.01,10,10,9,22,9,30,T,1,,292
2014-1-25,32,15,-2,29,15,-9,92,77,61,29.97,29.46,29.14,10,3,0,10,3,17,0.20,8,Fog-Snow,134
2014-1-26,27,14,0,24,2,-17,92,66,39,29.92,29.45,29.07,10,7,1,23,9,38,T,4,Snow,276
2014-1-27,30,16,1,25,7,-8,85,62,39,29.91,29.59,29.37,10,5,0,18,6,28,0.13,7,Fog-Snow,290
2014-1-28,13,2,-10,-6,-10,-15,83,61,38,30.24,30.11,29.90,10,10,10,18,5,33,T,1,,255
2014-1-29,19,4,-11,-2,-9,-14,83,56,28,30.20,30.02,29.86,10,9,2,14,3,22,T,1,Snow,278
2014-1-30,23,11,-1,6,0,-5,79,62,44,30.37,30.24,30.08,10,10,7,16,3,23,T,1,,225
2014-1-31,35,23,11,16,11,6,76,56,35,30.12,30.00,29.91,10,10,10,15,5,25,0.00,3,,250